Time;durP1;ratioP1;P1;durP2;ratioP2;P2;SDS_P1;SDS_P2;PMS_P1;PMS_P2;Temp;Humidity;BMP_temperature;BMP_pressure;BME280_temperature;BME280_humidity;BME280_pressure;Samples;Min_cycle;Max_cycle;Signal;HPM_P1;HPM_P2
2023/01/23 00:00:23;;;;;;;24.42;14.10;;;;;;;1.57;81.94;99146.69;10565479;28;20538;-79
2023/01/23 00:05:58;;;;;;;23.13;11.65;;;;;;;1.53;81.64;99164.69;10552015;28;20046;-79
2023/01/23 00:11:22;;;;;;;24.50;13.18;;;;;;;1.55;81.32;99162.97;10551338;28;20039;-79
2023/01/23 00:16:42;;;;;;;25.15;13.40;;;;;;;1.58;82.36;99161.94;10523370;28;20075;-78
2023/01/23 00:22:03;;;;;;;28.15;14.20;;;;;;;1.67;81.91;99156.19;10523033;28;20044;-78
2023/01/23 00:27:24;;;;;;;25.50;13.07;;;;;;;1.71;81.70;99164.19;10508946;28;20074;-79
2023/01/23 00:32:45;;;;;;;24.25;13.30;;;;;;;1.66;82.11;99170.47;10529328;28;20043;-78
2023/01/23 00:38:05;;;;;;;25.42;13.32;;;;;;;1.67;82.07;99180.22;10550665;28;20072;-78
2023/01/23 00:43:26;;;;;;;27.60;14.30;;;;;;;1.71;82.04;99175.22;10549094;28;20055;-79
2023/01/23 00:48:47;;;;;;;24.90;14.07;;;;;;;1.72;82.10;99188.47;10553816;28;20044;-78
2023/01/23 00:54:08;;;;;;;23.70;12.88;;;;;;;1.72;82.18;99187.72;10544015;28;20511;-79
2023/01/23 00:59:29;;;;;;;22.73;12.45;;;;;;;1.74;82.03;99190.75;10543790;28;20369;-78
2023/01/23 01:04:50;;;;;;;23.05;12.02;;;;;;;1.74;81.45;99199.00;10543407;28;20067;-79
2023/01/23 01:10:12;;;;;;;24.15;12.43;;;;;;;1.73;81.77;99202.97;10543728;28;20047;-78
2023/01/23 01:15:33;;;;;;;22.92;12.45;;;;;;;1.72;81.85;99198.72;10571648;28;20048;-79
2023/01/23 01:20:55;;;;;;;25.00;12.77;;;;;;;1.71;81.53;99209.00;10528853;28;20401;-79
2023/01/23 01:26:17;;;;;;;23.20;12.15;;;;;;;1.68;82.01;99198.25;10542896;28;20079;-79
2023/01/23 01:31:38;;;;;;;22.63;12.20;;;;;;;1.62;82.17;99197.47;10514689;28;20070;-78
2023/01/23 01:36:59;;;;;;;23.50;12.18;;;;;;;1.56;81.91;99196.72;10528719;28;20119;-78
2023/01/23 01:42:19;;;;;;;21.23;11.25;;;;;;;1.52;82.00;99202.47;10527997;28;20389;-79
2023/01/23 01:47:41;;;;;;;22.88;12.60;;;;;;;1.54;82.32;99188.19;10527892;28;20474;-79
2023/01/23 01:53:01;;;;;;;21.02;11.35;;;;;;;1.45;81.98;99180.97;10527621;28;20048;-79
2023/01/23 01:58:22;;;;;;;24.60;12.73;;;;;;;1.35;82.08;99183.19;10568261;28;20051;-79
2023/01/23 02:03:43;;;;;;;20.65;11.00;;;;;;;1.29;82.09;99179.66;10555237;28;20044;-79
2023/01/23 02:09:10;;;;;;;20.63;11.23;;;;;;;1.38;82.50;99184.94;10541003;28;20534;-78
2023/01/23 02:14:30;;;;;;;20.95;11.60;;;;;;;1.42;82.29;99184.69;10555066;28;20050;-79
2023/01/23 02:19:58;;;;;;;21.83;11.30;;;;;;;1.48;82.38;99192.97;10554694;28;20497;-78
2023/01/23 02:25:37;;;;;;;21.20;10.57;;;;;;;1.50;82.39;99190.47;10568571;28;20120;-79
2023/01/23 02:30:58;;;;;;;20.85;11.18;;;;;;;1.46;82.24;99192.72;10551380;27;20047;-79
2023/01/23 02:36:22;;;;;;;22.20;11.25;;;;;;;1.51;81.97;99198.22;10556055;27;20088;-79
2023/01/23 02:41:47;;;;;;;23.10;11.67;;;;;;;1.55;82.00;99215.25;10550471;27;20047;-79
2023/01/23 02:47:11;;;;;;;23.92;11.63;;;;;;;1.58;82.29;99216.25;10563683;27;20526;-78
2023/01/23 02:52:34;;;;;;;18.93;10.43;;;;;;;1.58;81.93;99208.00;10581914;27;20101;-78
2023/01/23 03:00:14;;;;;;;20.58;11.07;;;;;;;1.52;82.13;99212.72;10567547;27;20295;-78
2023/01/23 03:03:41;;;;;;;20.43;11.03;;;;;;;1.51;82.32;99222.97;10574719;27;20067;-79
2023/01/23 03:09:09;;;;;;;18.83;10.75;;;;;;;1.52;82.31;99220.97;10569488;27;20481;-78
2023/01/23 03:14:31;;;;;;;17.83;11.23;;;;;;;1.55;82.25;99231.75;10557313;27;20040;-78
2023/01/23 03:19:52;;;;;;;17.52;10.05;;;;;;;1.56;82.14;99224.25;10572556;27;20108;-78
2023/01/23 03:25:13;;;;;;;18.75;10.02;;;;;;;1.59;81.99;99237.00;10555168;27;20042;-78
2023/01/23 03:30:34;;;;;;;19.30;10.88;;;;;;;1.67;81.94;99224.28;10580386;27;20489;-78
2023/01/23 03:35:55;;;;;;;17.38;9.50;;;;;;;1.67;82.56;99214.00;10566302;27;20039;-78
2023/01/23 03:41:25;;;;;;;16.92;10.10;;;;;;;1.68;82.07;99206.50;10552034;28;20083;-78
2023/01/23 03:46:50;;;;;;;17.40;10.10;;;;;;;1.65;82.15;99204.75;10573930;28;20062;-78
2023/01/23 03:52:11;;;;;;;20.73;11.05;;;;;;;1.67;82.17;99213.25;10576340;28;20050;-78
2023/01/23 03:57:32;;;;;;;18.00;10.43;;;;;;;1.66;82.12;99223.53;10570521;28;20144;-78
2023/01/23 04:03:16;;;;;;;23.00;10.90;;;;;;;1.70;82.49;99229.53;10583177;28;20207;-79
2023/01/23 04:08:36;;;;;;;17.67;10.13;;;;;;;1.72;81.80;99234.53;10569418;28;20063;-79
2023/01/23 04:13:57;;;;;;;17.70;10.40;;;;;;;1.71;82.15;99241.28;10571696;28;20047;-78
2023/01/23 04:19:18;;;;;;;15.70;9.25;;;;;;;1.72;82.09;99251.78;10571818;28;20035;-78
2023/01/23 04:24:39;;;;;;;18.27;10.18;;;;;;;1.79;82.28;99247.06;10557519;27;20063;-78
2023/01/23 04:30:00;;;;;;;17.27;9.13;;;;;;;1.77;82.00;99233.78;10589211;27;20055;-78
2023/01/23 04:35:21;;;;;;;18.77;10.65;;;;;;;1.74;81.88;99229.28;10575826;27;20036;-78
2023/01/23 04:40:45;;;;;;;16.90;9.48;;;;;;;1.65;81.66;99233.03;10578914;27;20446;-78
2023/01/23 04:46:06;;;;;;;16.65;9.77;;;;;;;1.57;82.00;99225.75;10577176;27;20478;-79
2023/01/23 04:51:46;;;;;;;15.38;9.07;;;;;;;1.49;81.98;99227.50;10569069;27;20040;-78
2023/01/23 04:57:07;;;;;;;17.35;8.80;;;;;;;1.36;82.16;99216.97;10562473;27;20089;-78
2023/01/23 05:02:28;;;;;;;14.60;8.00;;;;;;;1.22;82.12;99206.91;10562042;27;20063;-78
2023/01/23 05:07:50;;;;;;;18.05;10.93;;;;;;;1.06;82.17;99200.09;10588309;27;20074;-78
2023/01/23 05:13:12;;;;;;;17.63;10.13;;;;;;;0.94;82.52;99204.06;10579673;27;20036;-78
2023/01/23 05:18:33;;;;;;;17.30;10.07;;;;;;;0.77;82.54;99217.72;10605338;27;20036;-78
2023/01/23 05:23:54;;;;;;;18.23;9.57;;;;;;;0.64;82.83;99220.16;10571354;27;20039;-78
2023/01/23 05:29:16;;;;;;;18.40;9.60;;;;;;;0.55;82.49;99221.13;10563117;27;20035;-78
2023/01/23 05:35:03;;;;;;;16.98;9.05;;;;;;;0.47;82.96;99236.53;10591905;27;20507;-78
2023/01/23 05:40:24;;;;;;;18.35;9.02;;;;;;;0.43;82.67;99250.53;10574973;27;20439;-78
2023/01/23 05:46:08;;;;;;;17.80;9.83;;;;;;;0.36;82.92;99258.44;10585302;27;20085;-78
2023/01/23 05:51:41;;;;;;;20.02;9.45;;;;;;;0.35;83.03;99267.94;10579112;27;20078;-78
2023/01/23 05:57:04;;;;;;;15.93;9.25;;;;;;;0.45;82.87;99285.75;10561501;27;20047;-78
2023/01/23 06:03:00;;;;;;;17.88;9.75;;;;;;;0.55;83.37;99278.81;10582866;27;20392;-78
2023/01/23 06:08:41;;;;;;;19.73;9.75;;;;;;;0.49;82.76;99280.78;10582382;27;20043;-78
2023/01/23 06:14:09;;;;;;;18.52;10.30;;;;;;;0.48;82.92;99288.28;10590548;27;20039;-78
2023/01/23 06:19:31;;;;;;;20.88;11.00;;;;;;;0.52;83.29;99293.53;10587231;27;20044;-78
2023/01/23 06:24:52;;;;;;;22.75;12.30;;;;;;;0.46;83.59;99290.00;10575679;27;20065;-78
2023/01/23 06:30:13;;;;;;;20.88;11.60;;;;;;;0.38;83.32;99288.94;10547284;28;20040;-77
2023/01/23 06:35:37;;;;;;;21.63;10.90;;;;;;;0.28;83.54;99288.34;10554432;28;20047;-79
2023/01/23 06:40:59;;;;;;;21.48;11.75;;;;;;;0.32;83.65;99302.63;10539490;28;20501;-78
2023/01/23 06:46:25;;;;;;;20.88;11.30;;;;;;;0.35;84.11;99298.91;10551581;28;20035;-78
2023/01/23 06:51:47;;;;;;;20.10;10.70;;;;;;;0.35;83.34;99309.91;10534115;28;20032;-78
2023/01/23 06:57:08;;;;;;;21.83;11.30;;;;;;;0.48;83.43;99323.22;10551816;28;20036;-78
2023/01/23 07:02:29;;;;;;;21.15;11.10;;;;;;;0.62;83.39;99329.84;10535886;28;20118;-77
2023/01/23 07:07:50;;;;;;;20.98;11.15;;;;;;;0.78;83.27;99335.47;10539093;28;20044;-77
2023/01/23 07:13:12;;;;;;;20.67;10.25;;;;;;;0.93;83.41;99349.03;10531786;28;20066;-77
2023/01/23 07:18:33;;;;;;;18.90;9.65;;;;;;;1.12;83.02;99352.91;10553603;28;20142;-78
2023/01/23 07:23:56;;;;;;;22.17;11.98;;;;;;;1.26;82.87;99348.47;10539501;28;20477;-77
2023/01/23 07:29:17;;;;;;;21.13;10.90;;;;;;;1.37;82.85;99361.53;10552327;28;20039;-78
2023/01/23 07:34:38;;;;;;;20.15;12.23;;;;;;;1.48;82.80;99344.31;10551953;28;20093;-78
2023/01/23 07:39:59;;;;;;;20.90;11.70;;;;;;;1.50;82.12;99374.84;10552193;28;20489;-78
2023/01/23 07:45:20;;;;;;;15.60;9.15;;;;;;;1.60;82.77;99368.63;10551737;28;20110;-78
2023/01/23 07:50:41;;;;;;;19.77;10.73;;;;;;;1.58;82.59;99397.91;10523938;28;20513;-78
2023/01/23 07:56:05;;;;;;;22.25;11.93;;;;;;;1.61;82.38;99396.91;10517662;28;20040;-77
2023/01/23 08:01:26;;;;;;;22.90;12.02;;;;;;;1.66;82.32;99394.19;10531876;28;20040;-78
2023/01/23 08:06:47;;;;;;;19.83;11.38;;;;;;;1.65;82.24;99400.19;10532222;28;20040;-78
2023/01/23 08:12:08;;;;;;;22.25;12.95;;;;;;;1.57;82.06;99399.16;10532146;28;20433;-78
2023/01/23 08:17:28;;;;;;;19.63;11.43;;;;;;;1.54;82.20;99403.63;10529274;28;20040;-78
2023/01/23 08:22:49;;;;;;;22.55;11.77;;;;;;;1.64;82.33;99401.41;10531491;28;20052;-78
2023/01/23 08:28:10;;;;;;;21.15;12.48;;;;;;;1.73;82.04;99403.97;10531470;28;20055;-78
2023/01/23 08:33:32;;;;;;;20.35;11.90;;;;;;;1.86;81.43;99407.03;10517556;28;20043;-77
2023/01/23 08:38:54;;;;;;;21.05;12.68;;;;;;;1.91;81.97;99420.06;10531174;28;20055;-75
2023/01/23 08:44:15;;;;;;;28.05;13.63;;;;;;;1.84;81.44;99426.06;10531014;28;20044;-77
2023/01/23 08:49:37;;;;;;;25.33;13.75;;;;;;;1.86;80.79;99429.06;10516832;28;20495;-77
2023/01/23 08:54:58;;;;;;;28.92;13.75;;;;;;;1.96;81.13;99435.09;10516691;28;20051;-77
2023/01/23 09:00:19;;;;;;;22.08;12.35;;;;;;;2.09;81.59;99451.91;10516091;28;20044;-77
2023/01/23 09:05:40;;;;;;;23.13;12.85;;;;;;;2.23;81.85;99439.22;10539131;28;20039;-77
2023/01/23 09:11:04;;;;;;;21.02;11.30;;;;;;;2.33;79.97;99442.47;10541958;28;20039;-77
2023/01/23 09:16:26;;;;;;;17.40;10.43;;;;;;;2.47;79.94;99439.50;10529269;28;20048;-77
2023/01/23 09:21:46;;;;;;;19.08;11.52;;;;;;;2.55;80.52;99448.03;10514613;28;20040;-79
2023/01/23 09:27:08;;;;;;;21.00;11.73;;;;;;;2.74;80.98;99443.53;10528674;28;20036;-78
2023/01/23 09:32:29;;;;;;;19.52;11.60;;;;;;;2.98;80.24;99440.28;10529125;28;20055;-78
2023/01/23 09:37:59;;;;;;;19.73;11.70;;;;;;;3.26;80.34;99426.44;10528778;28;20048;-78
2023/01/23 09:43:23;;;;;;;19.95;11.55;;;;;;;3.47;79.51;99420.63;10529600;28;20095;-79
2023/01/23 09:48:52;;;;;;;20.60;10.73;;;;;;;3.62;78.98;99416.31;10528408;28;20044;-78
2023/01/23 09:54:32;;;;;;;17.98;10.38;;;;;;;3.63;78.87;99426.09;10528796;28;20039;-79
2023/01/23 10:00:04;;;;;;;19.42;10.40;;;;;;;3.80;78.01;99417.03;10530321;28;20036;-79
2023/01/23 10:05:56;;;;;;;15.77;9.23;;;;;;;3.98;77.93;99416.44;10541650;28;20055;-79
2023/01/23 10:11:49;;;;;;;14.55;9.32;;;;;;;4.03;77.44;99410.13;10530043;28;20040;-78
2023/01/23 10:17:31;;;;;;;18.00;9.85;;;;;;;4.03;77.77;99419.16;10526903;28;20055;-79
2023/01/23 10:23:10;;;;;;;13.65;9.00;;;;;;;3.81;74.78;99418.53;10539167;28;20032;-78
2023/01/23 10:28:37;;;;;;;13.88;8.55;;;;;;;3.82;75.11;99415.25;10527153;28;20469;-79
2023/01/23 10:34:21;;;;;;;15.82;9.55;;;;;;;3.76;74.62;99416.50;10513188;28;20448;-78
2023/01/23 10:39:52;;;;;;;15.02;9.65;;;;;;;3.59;74.99;99409.06;10512331;28;20063;-78
2023/01/23 10:45:16;;;;;;;14.85;8.95;;;;;;;3.79;76.65;99404.47;10513116;28;20066;-78
2023/01/23 10:50:39;;;;;;;15.88;9.07;;;;;;;4.17;75.61;99402.78;10512117;28;20040;-77
2023/01/23 10:56:00;;;;;;;15.55;9.30;;;;;;;4.26;74.44;99397.69;10511992;28;20044;-78
2023/01/23 11:01:26;;;;;;;15.20;9.40;;;;;;;4.49;74.67;99403.06;10511655;28;20047;-78
2023/01/23 11:07:14;;;;;;;16.45;9.32;;;;;;;4.57;73.34;99395.72;10511991;28;20043;-78
2023/01/23 11:12:48;;;;;;;16.70;10.55;;;;;;;4.62;74.69;99396.94;10580008;28;20063;-78
2023/01/23 11:18:29;;;;;;;15.82;9.95;;;;;;;4.57;74.53;99392.97;10539436;28;20409;-78
2023/01/23 11:24:13;;;;;;;15.07;9.50;;;;;;;4.57;74.69;99379.13;10511641;28;20044;-78
2023/01/23 11:30:12;;;;;;;16.58;10.70;;;;;;;4.53;72.59;99386.94;10525341;28;20046;-78
2023/01/23 11:35:33;;;;;;;16.65;10.35;;;;;;;4.58;72.90;99389.66;10579617;28;20039;-78
2023/01/23 11:40:54;;;;;;;20.33;11.30;;;;;;;4.55;74.40;99387.94;10576520;28;20124;-78
2023/01/23 11:46:25;;;;;;;19.00;11.35;;;;;;;4.49;74.36;99381.69;10579861;28;20472;-78
2023/01/23 11:52:10;;;;;;;19.10;11.43;;;;;;;4.46;73.66;99370.91;10607049;28;20047;-79
2023/01/23 11:57:47;;;;;;;19.15;11.95;;;;;;;4.39;73.16;99377.00;10604772;28;20047;-78
2023/01/23 12:03:14;;;;;;;20.35;12.23;;;;;;;4.14;73.74;99359.56;10620966;28;20062;-78
2023/01/23 12:09:00;;;;;;;20.42;12.35;;;;;;;3.99;73.48;99368.19;10619097;28;20035;-78
2023/01/23 12:14:52;;;;;;;22.25;12.13;;;;;;;4.40;72.90;99365.41;10620309;28;20035;-78
2023/01/23 12:20:25;;;;;;;19.20;12.07;;;;;;;4.80;72.89;99361.06;10607079;28;20058;-78
2023/01/23 12:26:00;;;;;;;20.48;12.68;;;;;;;4.93;71.94;99357.69;10606328;28;20042;-78
2023/01/23 12:31:30;;;;;;;19.83;12.95;;;;;;;4.92;72.06;99361.72;10605414;28;20065;-78
2023/01/23 12:37:18;;;;;;;18.77;11.57;;;;;;;4.82;72.94;99358.53;10618871;28;20039;-78
2023/01/23 12:43:10;;;;;;;19.35;12.43;;;;;;;4.71;71.74;99350.34;10594805;27;20047;-78
2023/01/23 12:48:45;;;;;;;22.85;11.90;;;;;;;4.63;72.22;99351.41;10599722;27;20495;-78
2023/01/23 12:54:11;;;;;;;19.00;11.75;;;;;;;4.51;72.82;99336.94;10601646;27;20063;-78
2023/01/23 12:59:43;;;;;;;19.48;12.20;;;;;;;4.45;73.11;99333.47;10599066;27;20043;-78
2023/01/23 13:05:14;;;;;;;18.27;11.23;;;;;;;4.30;73.39;99331.06;10612243;27;20066;-78
2023/01/23 13:16:29;;;;;;;17.67;10.75;;;;;;;4.01;73.30;99360.16;10625957;27;20492;-78
2023/01/23 13:22:12;;;;;;;30.77;18.67;;;;;;;3.93;73.23;99351.66;10598222;27;20043;-78
2023/01/23 13:27:54;;;;;;;20.35;12.80;;;;;;;3.87;73.53;99341.91;10626873;27;20122;-77
2023/01/23 13:33:15;;;;;;;16.10;10.85;;;;;;;3.88;73.55;99359.97;10612533;27;20042;-78
2023/01/23 13:38:38;;;;;;;19.10;11.50;;;;;;;3.86;73.55;99366.03;10612367;27;20039;-77
2023/01/23 13:44:30;;;;;;;18.67;10.88;;;;;;;3.73;73.61;99363.78;10610428;27;20047;-77
2023/01/23 13:50:16;;;;;;;14.55;10.30;;;;;;;3.61;73.98;99369.88;10612371;27;20050;-78
2023/01/23 14:07:52;;;;;;;16.75;10.13;;;;;;;3.38;74.30;99372.00;10234352;29;20134;-77
2023/01/23 14:13:27;;;;;;;18.30;11.02;;;;;;;3.25;74.21;99372.50;10085042;29;20057;-77
2023/01/23 14:19:05;;;;;;;17.20;11.00;;;;;;;3.17;75.21;99375.03;9978218;29;20089;-77
2023/01/23 14:24:42;;;;;;;14.25;9.35;;;;;;;3.14;75.10;99375.28;9983944;29;20512;-77
2023/01/23 14:30:04;;;;;;;19.42;10.32;;;;;;;3.13;75.23;99371.78;10104370;29;20056;-78
2023/01/23 14:35:29;;;;;;;14.77;9.05;;;;;;;3.12;75.08;99359.25;10212981;28;20054;-77
2023/01/23 14:40:51;;;;;;;13.77;9.30;;;;;;;3.06;75.29;99364.00;10342044;28;20080;-77
2023/01/23 14:46:19;;;;;;;19.02;9.32;;;;;;;3.03;75.55;99373.31;10459425;28;20120;-78
2023/01/23 14:51:51;;;;;;;15.07;9.38;;;;;;;3.05;74.73;99379.06;10554105;28;20043;-78
2023/01/23 14:57:13;;;;;;;16.50;10.00;;;;;;;3.00;75.23;99359.78;10582347;28;20374;-77
2023/01/23 15:02:34;;;;;;;14.00;9.23;;;;;;;3.00;75.95;99370.81;10603757;27;20050;-77
2023/01/23 15:07:56;;;;;;;18.73;10.00;;;;;;;2.98;75.51;99376.81;10606121;27;20110;-77
2023/01/23 15:13:21;;;;;;;15.57;9.80;;;;;;;2.86;75.59;99386.38;10607475;27;20046;-78
2023/01/23 15:18:54;;;;;;;15.77;9.75;;;;;;;2.81;76.73;99385.13;10606662;27;20404;-78
2023/01/23 15:24:18;;;;;;;15.35;10.52;;;;;;;2.78;75.93;99379.84;10579374;27;20039;-78
2023/01/23 15:29:39;;;;;;;16.23;9.80;;;;;;;2.75;76.57;99372.59;10578882;27;20039;-77
2023/01/23 15:35:00;;;;;;;16.75;10.23;;;;;;;2.79;76.32;99384.84;10608658;27;20050;-77
2023/01/23 15:40:25;;;;;;;16.70;9.68;;;;;;;2.75;76.19;99389.13;10615295;27;20052;-77
2023/01/23 15:45:46;;;;;;;15.93;9.65;;;;;;;2.78;76.56;99388.13;10593643;27;20039;-77
2023/01/23 15:51:08;;;;;;;15.65;9.88;;;;;;;2.77;76.47;99397.66;10594170;28;20039;-77
2023/01/23 15:56:31;;;;;;;15.00;9.98;;;;;;;2.69;76.87;99391.88;10593868;28;20051;-77
2023/01/23 16:01:52;;;;;;;14.48;9.77;;;;;;;2.72;76.51;99396.41;10579528;28;20396;-76
2023/01/23 16:07:23;;;;;;;17.92;10.85;;;;;;;2.63;76.04;99382.88;10593428;28;20441;-76
2023/01/23 16:12:47;;;;;;;17.30;10.63;;;;;;;2.62;76.93;99386.13;10594152;28;20103;-76
2023/01/23 16:18:09;;;;;;;16.08;9.77;;;;;;;2.64;77.11;99389.13;10609840;27;20031;-77
2023/01/23 16:23:29;;;;;;;15.93;10.52;;;;;;;2.66;77.13;99392.91;10601261;27;20046;-78
2023/01/23 16:29:26;;;;;;;16.92;10.20;;;;;;;2.70;77.52;99387.13;10606194;27;20043;-78
2023/01/23 16:34:47;;;;;;;16.67;9.80;;;;;;;2.64;77.73;99389.13;10618236;27;20047;-77
2023/01/23 16:40:18;;;;;;;19.52;9.65;;;;;;;2.63;77.65;99396.66;10601271;27;20069;-77
2023/01/23 16:45:40;;;;;;;15.27;9.68;;;;;;;2.66;77.17;99403.16;10615039;27;20066;-78
2023/01/23 16:51:16;;;;;;;17.60;10.85;;;;;;;2.66;77.79;99403.91;10600680;27;20043;-77
2023/01/23 16:56:37;;;;;;;16.38;9.18;;;;;;;2.63;77.55;99409.69;10586650;27;20051;-78
2023/01/23 17:02:00;;;;;;;18.52;11.20;;;;;;;2.61;77.54;99412.97;10586402;27;20070;-78
2023/01/23 17:07:21;;;;;;;16.20;9.55;;;;;;;2.61;77.25;99420.47;10585998;27;20035;-78
2023/01/23 17:12:43;;;;;;;15.40;8.98;;;;;;;2.58;77.64;99422.97;10599967;27;20035;-77
2023/01/23 17:18:04;;;;;;;15.20;9.68;;;;;;;2.65;77.64;99423.72;10585866;27;20040;-77
2023/01/23 17:23:25;;;;;;;17.33;11.07;;;;;;;2.65;77.61;99435.50;10613534;27;20039;-76
2023/01/23 17:28:46;;;;;;;16.50;10.30;;;;;;;2.59;77.94;99435.50;10625444;27;20098;-78
2023/01/23 17:34:11;;;;;;;18.45;11.50;;;;;;;2.64;77.79;99439.53;10598754;27;20039;-78
2023/01/23 17:39:34;;;;;;;19.73;11.95;;;;;;;2.64;77.20;99439.53;10599358;27;20055;-77
2023/01/23 17:44:55;;;;;;;21.08;12.57;;;;;;;2.54;77.38;99439.00;10598948;27;20035;-77
2023/01/23 17:50:21;;;;;;;21.70;12.77;;;;;;;2.53;78.83;99443.03;10598374;27;20077;-77
2023/01/23 17:55:46;;;;;;;19.50;12.02;;;;;;;2.59;78.14;99454.78;10598631;27;20667;-76
2023/01/23 18:01:16;;;;;;;18.90;11.25;;;;;;;2.55;78.12;99448.03;10612172;27;20043;-77
2023/01/23 18:06:37;;;;;;;20.23;12.52;;;;;;;2.60;77.95;99450.03;10613755;27;20043;-77
2023/01/23 18:12:01;;;;;;;19.08;12.05;;;;;;;2.57;78.35;99462.81;10599099;27;20043;-77
2023/01/23 18:17:31;;;;;;;20.30;12.43;;;;;;;2.58;78.72;99464.31;10596982;27;20081;-77
2023/01/23 18:22:52;;;;;;;20.27;11.73;;;;;;;2.57;78.46;99468.31;10594190;27;20128;-77
2023/01/23 18:28:18;;;;;;;19.73;11.38;;;;;;;2.56;78.52;99477.09;10607475;27;20031;-76
2023/01/23 18:34:09;;;;;;;17.98;11.18;;;;;;;2.52;78.65;99480.13;10594481;27;20438;-77
2023/01/23 18:39:32;;;;;;;19.08;11.80;;;;;;;2.53;78.27;99473.34;10613932;27;20063;-77
2023/01/23 18:44:58;;;;;;;19.10;11.45;;;;;;;2.55;78.20;99481.88;10623768;27;20533;-77
2023/01/23 18:50:24;;;;;;;17.90;11.00;;;;;;;2.57;79.06;99482.13;10610223;27;20122;-77
2023/01/23 18:56:04;;;;;;;20.15;11.43;;;;;;;2.58;78.43;99485.63;10609784;27;20035;-79
2023/01/23 19:01:33;;;;;;;21.25;11.88;;;;;;;2.65;79.08;99489.91;10654241;27;20480;-75
2023/01/23 19:06:56;;;;;;;20.10;11.27;;;;;;;2.69;78.98;99490.41;10652033;27;20042;-75
2023/01/23 19:12:26;;;;;;;20.33;11.95;;;;;;;2.58;77.87;99491.88;10652173;27;20045;-75
2023/01/23 19:18:24;;;;;;;17.95;11.18;;;;;;;2.50;78.41;99493.63;10652763;27;20065;-75
2023/01/23 19:24:04;;;;;;;17.77;10.05;;;;;;;2.50;79.28;99490.88;10663287;27;20043;-78
2023/01/23 19:29:25;;;;;;;21.77;12.32;;;;;;;2.45;79.25;99501.88;10594875;27;20501;-77
2023/01/23 19:34:47;;;;;;;20.15;11.43;;;;;;;2.41;79.29;99502.13;10594706;27;20063;-78
2023/01/23 19:40:09;;;;;;;20.75;11.48;;;;;;;2.41;79.13;99498.59;10608489;27;20047;-77
2023/01/23 19:45:30;;;;;;;20.65;11.43;;;;;;;2.48;79.31;99500.88;10622678;27;20050;-78
2023/01/23 19:50:51;;;;;;;19.33;10.73;;;;;;;2.55;79.40;99497.66;10608398;28;20039;-77
2023/01/23 19:56:14;;;;;;;19.70;11.25;;;;;;;2.57;79.27;99506.16;10593750;28;20046;-78
2023/01/23 20:01:38;;;;;;;17.73;11.27;;;;;;;2.57;79.69;99506.91;10608300;28;20051;-78
2023/01/23 20:06:59;;;;;;;20.50;11.68;;;;;;;2.56;79.01;99499.16;10593994;28;20043;-77
2023/01/23 20:12:20;;;;;;;18.67;11.43;;;;;;;2.51;78.91;99506.19;10607639;28;20069;-77
2023/01/23 20:17:41;;;;;;;19.85;10.98;;;;;;;2.50;79.12;99515.66;10607534;28;20087;-77
2023/01/23 20:23:03;;;;;;;21.50;12.48;;;;;;;2.52;79.00;99499.41;10607446;28;20503;-78
2023/01/23 20:28:24;;;;;;;20.02;11.52;;;;;;;2.54;79.20;99510.69;10593505;28;20043;-75
2023/01/23 20:33:46;;;;;;;17.58;10.18;;;;;;;2.57;79.42;99506.16;10593139;28;20039;-78
2023/01/23 20:39:07;;;;;;;19.80;10.00;;;;;;;2.62;79.39;99515.72;10592951;28;20035;-77
2023/01/23 20:44:28;;;;;;;17.67;10.25;;;;;;;2.61;79.00;99522.50;10590290;28;20056;-78
2023/01/23 20:49:50;;;;;;;17.25;10.20;;;;;;;2.55;79.33;99531.50;10620102;28;20039;-78
2023/01/23 20:55:14;;;;;;;16.52;9.60;;;;;;;2.54;79.23;99523.72;10595465;28;20404;-78
2023/01/23 21:00:36;;;;;;;16.13;9.48;;;;;;;2.52;79.21;99532.50;10593680;28;20043;-77
2023/01/23 21:05:58;;;;;;;17.05;9.85;;;;;;;2.50;79.16;99534.97;10603149;27;20039;-78
2023/01/23 21:11:19;;;;;;;18.88;10.20;;;;;;;2.49;79.39;99535.47;10593746;27;20035;-78
2023/01/23 21:16:40;;;;;;;23.00;13.02;;;;;;;2.47;79.90;99541.47;10580236;27;20039;-78
2023/01/23 21:22:01;;;;;;;19.70;11.45;;;;;;;2.45;79.16;99546.75;10589856;27;20046;-77
2023/01/23 21:27:22;;;;;;;17.83;10.38;;;;;;;2.41;79.36;99531.69;10581909;27;20035;-78
2023/01/23 21:32:46;;;;;;;16.75;9.50;;;;;;;2.44;79.90;99541.72;10582404;27;20046;-77
2023/01/23 21:38:09;;;;;;;16.57;9.53;;;;;;;2.44;79.89;99542.47;10594150;27;20039;-77
2023/01/23 21:43:30;;;;;;;19.77;10.52;;;;;;;2.44;79.71;99541.72;10593103;27;20353;-78
2023/01/23 21:48:51;;;;;;;18.52;10.98;;;;;;;2.50;79.94;99542.47;10607247;27;20078;-77
2023/01/23 21:54:12;;;;;;;16.23;9.40;;;;;;;2.47;79.72;99535.97;10578726;27;20059;-78
2023/01/23 21:59:33;;;;;;;20.10;10.07;;;;;;;2.48;79.52;99536.72;10590946;27;20046;-77
2023/01/23 22:04:54;;;;;;;18.92;10.57;;;;;;;2.46;79.66;99530.97;10594735;27;20035;-77
2023/01/23 22:10:15;;;;;;;17.25;9.13;;;;;;;2.38;79.78;99525.16;10578946;27;20046;-77
2023/01/23 22:15:36;;;;;;;18.15;9.45;;;;;;;2.38;80.13;99533.44;10563454;27;20058;-77
2023/01/23 22:21:01;;;;;;;16.25;9.98;;;;;;;2.35;79.74;99539.94;10561820;27;20039;-77
2023/01/23 22:26:22;;;;;;;17.80;10.18;;;;;;;2.39;79.61;99532.19;10576532;27;20070;-78
2023/01/23 22:31:43;;;;;;;17.42;9.27;;;;;;;2.43;79.92;99527.19;10563377;27;20058;-77
2023/01/23 22:37:04;;;;;;;17.05;9.70;;;;;;;2.47;79.54;99532.47;10591460;27;20039;-78
2023/01/23 22:42:25;;;;;;;15.60;9.60;;;;;;;2.51;79.37;99531.00;10575632;27;20054;-77
2023/01/23 22:47:45;;;;;;;15.60;9.38;;;;;;;2.51;79.99;99525.47;10610199;27;20653;-77
2023/01/23 22:53:06;;;;;;;14.45;9.30;;;;;;;2.51;79.86;99531.00;10609930;27;20062;-77
2023/01/23 22:58:27;;;;;;;15.18;9.38;;;;;;;2.53;79.79;99522.97;10595388;27;20054;-77
2023/01/23 23:03:48;;;;;;;14.13;8.80;;;;;;;2.53;80.05;99516.69;10591387;27;20057;-78
2023/01/23 23:09:09;;;;;;;13.65;8.43;;;;;;;2.50;79.92;99523.94;10605860;27;20543;-77
2023/01/23 23:14:30;;;;;;;16.83;9.55;;;;;;;2.52;79.22;99515.94;10577059;27;20035;-78
2023/01/23 23:19:50;;;;;;;15.30;8.82;;;;;;;2.43;79.99;99510.66;10591483;27;20039;-77
2023/01/23 23:25:11;;;;;;;15.45;8.98;;;;;;;2.44;79.83;99514.91;10591145;27;20123;-78
2023/01/23 23:30:32;;;;;;;17.33;9.32;;;;;;;2.42;80.14;99511.16;10592372;27;20100;-77
2023/01/23 23:35:53;;;;;;;14.70;9.13;;;;;;;2.45;80.19;99516.41;10622875;27;20043;-77
2023/01/23 23:41:14;;;;;;;14.73;8.95;;;;;;;2.47;79.94;99522.19;10594064;27;20047;-78
2023/01/23 23:46:35;;;;;;;19.52;10.38;;;;;;;2.51;79.99;99519.19;10608243;27;20070;-78
2023/01/23 23:51:56;;;;;;;16.70;10.15;;;;;;;2.52;79.56;99517.94;10593911;28;20046;-77
2023/01/23 23:57:17;;;;;;;18.00;11.13;;;;;;;2.51;80.54;99521.94;10608375;28;20047;-77
